Logan, Illinois
Current Conditions -  °F | °C
As of 4:55 AM on Thursday 27 Nov 2014 (Local Time) from KMWA Reporting Station
Overcast Overcast  
Wind Chill: -4°   Ceiling: 1000
Heat Index:   Visibility: 7mi
Dew Point: -1°   Wind: 7mph
Humidity: 93%   Direction: 330°NNW
Pressure: 30.34"   Gusts: 16mph
Location:  37.96°N, 88.84°W
Report Text: KMWA 271055Z AUTO 33006G14KT 7SM OVC010 00/M01 A3034 RMK AO2
Loading
Personal Weather Stations






























Interactive Weather Map New forecast layout! Learn more

10-Day Weather Forecast

Advertisements
Track Severe Weather on mobile